createdAt,value
2022-10-17T00:02:26.007Z,6.77
2022-10-17T00:04:52.941Z,6.76
2022-10-17T00:07:19.904Z,6.69
2022-10-17T00:09:46.822Z,6.70
2022-10-17T00:12:13.711Z,6.68
2022-10-17T00:14:40.653Z,6.62
2022-10-17T00:17:07.685Z,6.70
2022-10-17T00:19:34.622Z,6.65
2022-10-17T00:22:01.472Z,6.60
2022-10-17T00:24:31.054Z,6.59
2022-10-17T00:26:57.913Z,6.58
2022-10-17T00:29:25.737Z,6.64
2022-10-17T00:31:56.760Z,6.61
2022-10-17T00:34:25.468Z,6.60
2022-10-17T00:36:52.463Z,6.64
2022-10-17T00:39:19.395Z,6.61
2022-10-17T00:41:46.410Z,6.59
2022-10-17T00:44:31.725Z,6.62
2022-10-17T00:47:01.621Z,6.68
2022-10-17T00:49:32.970Z,6.73
2022-10-17T00:52:04.607Z,6.73
2022-10-17T00:54:35.651Z,6.73
2022-10-17T00:57:02.800Z,6.69
2022-10-17T00:59:32.645Z,6.60
2022-10-17T01:02:04.859Z,6.65
2022-10-17T01:04:32.137Z,6.58
2022-10-17T01:06:58.937Z,6.62
2022-10-17T01:09:27.363Z,6.60
2022-10-17T01:12:22.143Z,6.51
2022-10-17T01:15:04.309Z,6.50
2022-10-17T01:17:43.284Z,6.49
2022-10-17T01:20:36.005Z,6.45
2022-10-17T01:23:30.516Z,6.45
2022-10-17T01:26:23.987Z,6.33
2022-10-17T01:29:28.521Z,6.36
2022-10-17T01:32:02.229Z,6.32
2022-10-17T01:34:33.531Z,6.32
2022-10-17T01:37:18.760Z,6.33
2022-10-17T01:39:52.585Z,6.35
2022-10-17T01:42:34.148Z,6.29
2022-10-17T01:45:18.603Z,6.37
2022-10-17T01:47:47.879Z,6.30
2022-10-17T01:50:20.249Z,6.34
2022-10-17T01:53:03.763Z,6.23
2022-10-17T01:55:44.059Z,6.26
2022-10-17T01:58:16.900Z,6.31
2022-10-17T02:00:45.637Z,6.28
2022-10-17T02:03:17.844Z,6.14
2022-10-17T02:05:45.534Z,6.21
2022-10-17T02:08:12.955Z,6.16
2022-10-17T02:10:55.652Z,6.21
2022-10-17T02:13:48.820Z,6.13
2022-10-17T02:16:28.013Z,6.15
2022-10-17T02:19:02.396Z,6.08
2022-10-17T02:21:52.179Z,6.09
2022-10-17T02:24:32.356Z,6.10
2022-10-17T02:27:10.998Z,6.14
2022-10-17T02:29:47.909Z,6.23
2022-10-17T02:32:26.239Z,6.19
2022-10-17T02:34:56.486Z,6.11
2022-10-17T02:37:28.083Z,6.19
2022-10-17T02:39:58.003Z,6.12
2022-10-17T02:42:26.626Z,6.13
2022-10-17T02:44:55.203Z,6.15
2022-10-17T02:47:42.201Z,6.14
2022-10-17T02:50:09.544Z,6.14
2022-10-17T02:52:46.058Z,6.14
2022-10-17T02:55:20.066Z,6.12
2022-10-17T02:57:56.205Z,6.19
2022-10-17T03:00:25.112Z,6.25
2022-10-17T03:02:54.034Z,6.23
2022-10-17T03:05:24.215Z,6.23
2022-10-17T03:07:52.344Z,6.22
2022-10-17T03:10:19.789Z,6.22
2022-10-17T03:12:47.631Z,6.26
2022-10-17T03:15:14.904Z,6.31
2022-10-17T03:17:42.551Z,6.29
2022-10-17T03:20:10.715Z,6.28
2022-10-17T03:22:37.653Z,6.22
2022-10-17T03:25:06.146Z,6.16
2022-10-17T03:27:35.637Z,6.12
2022-10-17T03:30:02.627Z,6.11
2022-10-17T03:32:33.757Z,6.21
2022-10-17T03:35:00.768Z,6.11
2022-10-17T03:37:28.306Z,6.12
2022-10-17T03:39:55.745Z,6.14
2022-10-17T03:42:22.971Z,6.18
2022-10-17T03:44:49.855Z,6.10
2022-10-17T03:47:16.971Z,5.98
2022-10-17T03:49:44.594Z,6.05
2022-10-17T03:52:15.205Z,5.98
2022-10-17T03:54:42.526Z,6.07
2022-10-17T03:57:09.423Z,6.12
2022-10-17T03:59:36.772Z,6.08
2022-10-17T04:02:09.796Z,5.93
2022-10-17T04:04:36.775Z,6.10
2022-10-17T04:07:03.802Z,6.09
2022-10-17T04:09:30.834Z,6.12
2022-10-17T04:12:06.501Z,6.11
2022-10-17T04:14:36.593Z,6.13
2022-10-17T04:17:03.704Z,6.24
2022-10-17T04:19:31.561Z,6.18
2022-10-17T04:21:58.582Z,6.16
2022-10-17T04:24:27.973Z,5.96
2022-10-17T04:27:04.119Z,6.17
2022-10-17T04:29:33.391Z,6.08
2022-10-17T04:32:12.882Z,6.13
2022-10-17T04:34:50.132Z,6.22
2022-10-17T04:37:18.489Z,6.19
2022-10-17T04:39:46.716Z,6.26
2022-10-17T04:42:13.641Z,6.22
2022-10-17T04:44:41.072Z,6.31
2022-10-17T04:47:08.541Z,6.29
2022-10-17T04:49:35.600Z,6.39
2022-10-17T04:52:08.906Z,6.41
2022-10-17T04:54:39.594Z,6.43
2022-10-17T04:57:09.443Z,6.52
2022-10-17T04:59:36.802Z,6.55
2022-10-17T05:02:24.053Z,6.49
2022-10-17T05:04:51.600Z,6.64
2022-10-17T05:07:19.548Z,6.62
2022-10-17T05:10:00.958Z,6.69
2022-10-17T05:12:30.601Z,6.76
2022-10-17T05:14:57.912Z,6.77
2022-10-17T05:17:26.455Z,6.79
2022-10-17T05:19:53.431Z,6.73
2022-10-17T05:22:20.390Z,6.83
2022-10-17T05:24:47.578Z,6.81
2022-10-17T05:27:14.463Z,6.84
2022-10-17T05:29:41.464Z,6.93
2022-10-17T05:32:18.699Z,6.99
2022-10-17T05:34:45.560Z,7.01
2022-10-17T05:37:13.192Z,7.12
2022-10-17T05:39:42.942Z,7.12
2022-10-17T05:42:10.483Z,7.10
2022-10-17T05:44:39.333Z,7.13
2022-10-17T05:47:10.995Z,7.21
2022-10-17T05:49:46.308Z,7.23
2022-10-17T05:52:16.857Z,7.37
2022-10-17T05:54:57.454Z,7.55
2022-10-17T05:57:27.684Z,7.63
2022-10-17T05:59:54.963Z,7.63
2022-10-17T06:02:22.307Z,7.59
2022-10-17T06:04:50.510Z,7.58
2022-10-17T06:07:19.733Z,7.54
2022-10-17T06:09:47.829Z,7.67
2022-10-17T06:12:15.253Z,7.57
2022-10-17T06:14:43.273Z,7.54
2022-10-17T06:17:15.729Z,7.66
2022-10-17T06:19:45.126Z,7.79
2022-10-17T06:22:14.822Z,7.83
2022-10-17T06:24:42.593Z,7.57
2022-10-17T06:27:11.898Z,7.72
2022-10-17T06:29:40.455Z,7.90
2022-10-17T06:32:09.887Z,7.87
2022-10-17T06:34:40.542Z,7.98
2022-10-17T06:37:07.436Z,8.07
2022-10-17T06:39:36.549Z,8.00
2022-10-17T06:42:07.963Z,7.91
2022-10-17T06:44:47.388Z,8.10
2022-10-17T06:47:37.254Z,8.41
2022-10-17T06:50:15.206Z,8.71
2022-10-17T06:52:56.944Z,8.92
2022-10-17T06:55:52.532Z,9.63
2022-10-17T06:58:47.130Z,9.91
2022-10-17T07:01:43.084Z,9.88
2022-10-17T07:04:13.588Z,9.93
2022-10-17T07:06:41.020Z,9.83
2022-10-17T07:09:20.722Z,9.87
2022-10-17T07:11:47.856Z,9.88
2022-10-17T07:14:18.121Z,9.70
2022-10-17T07:16:46.565Z,9.56
2022-10-17T07:19:19.637Z,9.31
2022-10-17T07:21:46.663Z,9.13
2022-10-17T07:24:13.684Z,9.01
2022-10-17T07:26:44.985Z,9.26
2022-10-17T07:29:12.182Z,9.30
2022-10-17T07:31:56.246Z,9.21
2022-10-17T07:34:27.542Z,9.36
2022-10-17T07:36:54.618Z,9.20
2022-10-17T07:39:21.583Z,9.24
2022-10-17T07:41:50.893Z,9.16
2022-10-17T07:44:18.669Z,9.11
2022-10-17T07:46:49.384Z,8.94
2022-10-17T07:49:16.806Z,8.94
2022-10-17T07:51:43.829Z,8.76
2022-10-17T07:54:10.737Z,8.86
2022-10-17T07:56:37.739Z,8.95
2022-10-17T07:59:08.260Z,8.90
2022-10-17T08:01:37.058Z,8.89
2022-10-17T08:04:03.976Z,8.75
2022-10-17T08:06:30.839Z,8.32
2022-10-17T08:08:58.618Z,8.43
2022-10-17T08:11:25.530Z,8.38
2022-10-17T08:13:52.634Z,8.18
2022-10-17T08:16:19.664Z,8.24
2022-10-17T08:18:46.580Z,8.13
2022-10-17T08:21:13.644Z,8.28
2022-10-17T08:23:41.048Z,8.31
2022-10-17T08:26:10.792Z,8.38
2022-10-17T08:28:39.905Z,8.47
2022-10-17T08:31:13.032Z,8.48
2022-10-17T08:33:40.922Z,8.50
2022-10-17T08:36:09.435Z,8.53
2022-10-17T08:38:37.615Z,8.51
2022-10-17T08:41:12.262Z,8.48
2022-10-17T08:44:20.379Z,8.41
2022-10-17T08:46:48.453Z,8.53
2022-10-17T08:50:04.598Z,8.48
2022-10-17T08:52:53.125Z,8.52
2022-10-17T08:55:37.897Z,8.38
2022-10-17T08:58:22.259Z,8.47
2022-10-17T09:01:14.164Z,8.31
2022-10-17T09:04:20.066Z,8.14
2022-10-17T09:07:10.350Z,8.30
2022-10-17T09:09:58.871Z,8.20
2022-10-17T09:12:25.723Z,7.95
2022-10-17T09:15:16.479Z,7.88
2022-10-17T09:17:44.060Z,7.84
2022-10-17T09:20:21.652Z,7.59
2022-10-17T09:23:17.420Z,7.61
2022-10-17T09:25:47.578Z,7.53
2022-10-17T09:28:21.064Z,7.47
2022-10-17T09:30:56.299Z,7.53
2022-10-17T09:33:42.385Z,7.56
2022-10-17T09:36:21.512Z,7.69
2022-10-17T09:38:52.592Z,7.68
2022-10-17T09:41:47.502Z,7.81
2022-10-17T09:44:22.951Z,7.93
2022-10-17T09:47:20.532Z,7.92
2022-10-17T09:49:48.911Z,8.06
2022-10-17T09:52:15.757Z,7.87
2022-10-17T09:54:49.968Z,7.94
2022-10-17T09:57:19.066Z,8.09
2022-10-17T09:59:56.187Z,8.14
2022-10-17T10:02:24.725Z,8.01
2022-10-17T10:05:03.615Z,8.11
2022-10-17T10:07:34.825Z,8.10
2022-10-17T10:10:04.744Z,8.20
2022-10-17T10:12:39.539Z,8.32
2022-10-17T10:15:41.273Z,8.26
2022-10-17T10:18:33.056Z,8.23
2022-10-17T10:21:21.513Z,8.26
2022-10-17T10:24:12.666Z,8.12
2022-10-17T10:26:43.956Z,8.24
2022-10-17T10:29:36.862Z,8.36
2022-10-17T10:32:29.123Z,8.23
2022-10-17T10:35:08.833Z,8.39
2022-10-17T10:37:42.421Z,8.46
2022-10-17T10:40:35.254Z,8.20
2022-10-17T10:43:05.471Z,8.21
2022-10-17T10:45:54.097Z,8.40
2022-10-17T10:48:25.223Z,8.24
2022-10-17T10:51:09.778Z,8.40
2022-10-17T10:53:43.168Z,8.43
2022-10-17T10:56:21.231Z,8.24
2022-10-17T10:58:57.255Z,8.33
2022-10-17T11:01:39.206Z,8.42
2022-10-17T11:04:21.255Z,8.22
2022-10-17T11:06:52.445Z,8.34
2022-10-17T11:09:37.511Z,8.30
2022-10-17T11:12:13.359Z,8.46
2022-10-17T11:14:49.023Z,8.39
2022-10-17T11:17:32.670Z,8.37
2022-10-17T11:20:15.216Z,8.43
2022-10-17T11:22:48.161Z,8.47
2022-10-17T11:25:42.019Z,8.40
2022-10-17T11:28:18.389Z,8.42
2022-10-17T11:30:51.624Z,8.51
2022-10-17T11:33:29.174Z,8.37
2022-10-17T11:36:03.498Z,8.53
2022-10-17T11:38:39.561Z,8.56
2022-10-17T11:41:11.779Z,8.19
2022-10-17T11:43:48.757Z,8.47
2022-10-17T11:46:23.980Z,8.37
2022-10-17T11:49:19.055Z,8.44
2022-10-17T11:52:00.913Z,8.60
2022-10-17T11:54:40.959Z,8.38
2022-10-17T11:57:32.871Z,8.46
2022-10-17T12:00:11.929Z,8.39
2022-10-17T12:02:51.002Z,8.44
2022-10-17T12:05:36.475Z,8.32
2022-10-17T12:08:31.502Z,8.47
2022-10-17T12:11:01.243Z,8.42
2022-10-17T12:13:28.493Z,8.40
2022-10-17T12:15:57.100Z,8.56
2022-10-17T12:18:27.648Z,8.42
2022-10-17T12:21:00.268Z,8.51
2022-10-17T12:23:31.995Z,8.30
2022-10-17T12:26:05.408Z,8.40
2022-10-17T12:28:46.584Z,8.48
2022-10-17T12:31:16.561Z,8.55
2022-10-17T12:33:46.521Z,8.59
2022-10-17T12:36:22.162Z,8.71
2022-10-17T12:38:51.399Z,8.65
2022-10-17T12:41:38.553Z,8.78
2022-10-17T12:44:14.697Z,8.79
2022-10-17T12:46:57.243Z,8.67
2022-10-17T12:49:46.697Z,8.51
2022-10-17T12:52:31.757Z,8.64
2022-10-17T12:55:13.527Z,8.59
2022-10-17T12:57:53.506Z,8.64
2022-10-17T13:00:25.327Z,8.62
2022-10-17T13:02:54.907Z,8.51
2022-10-17T13:05:29.693Z,8.59
2022-10-17T13:08:00.046Z,8.73
2022-10-17T13:10:30.012Z,8.81
2022-10-17T13:13:33.767Z,8.89
2022-10-17T13:16:01.118Z,8.88
2022-10-17T13:18:29.736Z,8.78
2022-10-17T13:21:02.307Z,8.77
2022-10-17T13:23:40.620Z,8.95
2022-10-17T13:26:10.243Z,8.87
2022-10-17T13:28:39.569Z,8.88
2022-10-17T13:31:07.698Z,8.89
2022-10-17T13:33:40.970Z,8.93
2022-10-17T13:36:15.861Z,8.93
2022-10-17T13:38:43.368Z,8.93
2022-10-17T13:44:04.635Z,9.06
2022-10-17T13:46:38.411Z,9.05
2022-10-17T13:49:15.357Z,9.08
2022-10-17T13:51:48.066Z,8.97
2022-10-17T13:54:31.216Z,9.12
2022-10-17T13:56:59.566Z,8.99
2022-10-17T13:59:39.229Z,9.10
2022-10-17T14:02:12.706Z,8.95
2022-10-17T14:05:04.111Z,8.97
2022-10-17T14:08:09.413Z,8.74
2022-10-17T14:10:33.891Z,9.02
2022-10-17T14:13:01.902Z,8.95
2022-10-17T14:15:31.286Z,9.00
2022-10-17T14:18:09.495Z,8.89
2022-10-17T14:23:36.361Z,8.60
2022-10-17T14:26:09.301Z,8.66
2022-10-17T14:28:36.802Z,8.58
2022-10-17T14:31:33.968Z,8.59
2022-10-17T14:34:02.426Z,8.72
2022-10-17T14:36:38.730Z,8.73
2022-10-17T14:39:13.356Z,8.64
2022-10-17T14:41:44.839Z,8.73
2022-10-17T14:44:32.140Z,8.74
2022-10-17T14:47:30.786Z,8.76
2022-10-17T14:50:07.928Z,8.75
2022-10-17T14:52:35.410Z,8.59
2022-10-17T14:55:28.329Z,8.62
2022-10-17T14:57:56.038Z,8.55
2022-10-17T15:00:23.812Z,8.58
2022-10-17T15:02:52.685Z,8.62
2022-10-17T15:05:20.539Z,8.63
2022-10-17T15:07:47.528Z,8.52
2022-10-17T15:10:26.080Z,8.54
2022-10-17T15:12:59.073Z,8.51
2022-10-17T15:15:31.840Z,8.53
2022-10-17T15:17:58.864Z,8.43
2022-10-17T15:20:28.186Z,8.39
2022-10-17T15:22:56.108Z,8.47
2022-10-17T15:25:23.140Z,8.47
2022-10-17T15:27:50.169Z,8.33
2022-10-17T15:30:21.816Z,8.41
2022-10-17T15:32:49.771Z,8.46
2022-10-17T15:35:17.476Z,8.46
2022-10-17T15:37:46.778Z,8.43
2022-10-17T15:40:19.629Z,8.43
2022-10-17T15:42:46.645Z,8.51
2022-10-17T15:45:16.008Z,8.56
2022-10-17T15:47:49.516Z,8.64
2022-10-17T15:50:17.540Z,8.71
2022-10-17T15:52:44.418Z,8.75
2022-10-17T15:55:11.389Z,8.83
2022-10-17T15:57:42.969Z,8.81
2022-10-17T16:00:28.252Z,8.83
2022-10-17T16:02:55.148Z,8.92
2022-10-17T16:05:26.081Z,9.02
2022-10-17T16:07:53.893Z,9.03
2022-10-17T16:10:22.393Z,9.10
2022-10-17T16:12:50.401Z,9.12
2022-10-17T16:15:25.696Z,9.06
2022-10-17T16:17:53.933Z,9.20
2022-10-17T16:20:22.374Z,9.16
2022-10-17T16:22:49.711Z,9.22
2022-10-17T16:25:25.155Z,9.14
2022-10-17T16:27:54.194Z,9.24
2022-10-17T16:32:55.297Z,9.36
2022-10-17T16:35:25.663Z,9.41
2022-10-17T16:37:52.621Z,9.43
2022-10-17T16:40:19.773Z,9.34
2022-10-17T16:42:46.714Z,9.31
2022-10-17T16:45:22.226Z,9.34
2022-10-17T16:47:49.863Z,9.36
2022-10-17T16:50:17.117Z,9.41
2022-10-17T16:52:44.134Z,9.38
2022-10-17T16:55:11.105Z,9.30
2022-10-17T16:57:38.114Z,9.33
2022-10-17T17:00:07.138Z,9.38
2022-10-17T17:02:34.223Z,9.44
2022-10-17T17:05:01.345Z,9.52
2022-10-17T17:07:29.853Z,9.44
2022-10-17T17:09:57.144Z,9.57
2022-10-17T17:12:24.433Z,9.60
2022-10-17T17:14:51.742Z,9.51
2022-10-17T17:17:30.461Z,9.62
2022-10-17T17:20:06.905Z,9.61
2022-10-17T17:22:34.464Z,9.63
2022-10-17T17:25:01.660Z,9.68
2022-10-17T17:27:30.370Z,9.71
2022-10-17T17:29:57.553Z,9.68
2022-10-17T17:32:24.574Z,9.69
2022-10-17T17:34:51.637Z,9.72
2022-10-17T17:37:18.588Z,9.59
2022-10-17T17:39:45.580Z,9.68
2022-10-17T17:42:12.441Z,9.72
2022-10-17T17:44:39.341Z,9.67
2022-10-17T17:47:06.368Z,9.65
2022-10-17T17:49:33.216Z,9.60
2022-10-17T17:52:00.233Z,9.65
2022-10-17T17:54:27.146Z,9.62
2022-10-17T17:56:54.001Z,9.70
2022-10-17T17:59:20.961Z,9.63
2022-10-17T18:01:48.095Z,9.62
2022-10-17T18:04:16.586Z,9.58
2022-10-17T18:06:43.667Z,9.67
2022-10-17T18:09:11.196Z,9.65
2022-10-17T18:11:38.532Z,9.73
2022-10-17T18:14:08.022Z,9.72
2022-10-17T18:16:36.834Z,9.73
2022-10-17T18:19:06.891Z,9.63
2022-10-17T18:21:34.742Z,9.64
2022-10-17T18:24:02.315Z,9.68
2022-10-17T18:26:29.294Z,9.70
2022-10-17T18:28:56.717Z,9.66
2022-10-17T18:31:28.389Z,9.70
2022-10-17T18:33:57.101Z,9.69
2022-10-17T18:36:26.230Z,9.74
2022-10-17T18:38:54.653Z,9.84
2022-10-17T18:41:25.448Z,9.87
2022-10-17T18:43:54.500Z,9.89
2022-10-17T18:46:26.895Z,9.96
2022-10-17T18:48:54.107Z,9.89
2022-10-17T18:51:23.949Z,9.84
2022-10-17T18:53:53.288Z,9.78
2022-10-17T18:56:21.676Z,9.73
2022-10-17T18:58:49.124Z,9.71
2022-10-17T19:01:24.670Z,9.70
2022-10-17T19:03:54.205Z,9.60
2022-10-17T19:06:23.804Z,9.60
2022-10-17T19:08:50.907Z,9.54
2022-10-17T19:11:23.431Z,9.52
2022-10-17T19:13:51.564Z,9.45
2022-10-17T19:16:28.335Z,9.46
2022-10-17T19:18:58.866Z,9.43
2022-10-17T19:21:26.478Z,9.38
2022-10-17T19:23:56.762Z,9.33
2022-10-17T19:26:24.356Z,9.33
2022-10-17T19:28:53.536Z,9.28
2022-10-17T19:31:26.496Z,9.24
2022-10-17T19:33:55.097Z,9.19
2022-10-17T19:36:27.587Z,9.19
2022-10-17T19:38:58.303Z,9.16
2022-10-17T19:41:25.454Z,9.07
2022-10-17T19:43:52.637Z,9.05
2022-10-17T19:46:22.225Z,9.04
2022-10-17T19:48:50.397Z,9.01
2022-10-17T19:51:19.050Z,8.99
2022-10-17T19:53:47.147Z,8.97
2022-10-17T19:56:14.456Z,8.92
2022-10-17T19:58:45.514Z,8.86
2022-10-17T20:01:21.042Z,8.83
2022-10-17T20:03:48.114Z,8.79
2022-10-17T20:06:16.147Z,8.77
2022-10-17T20:08:43.465Z,8.69
2022-10-17T20:11:19.987Z,8.72
2022-10-17T20:13:47.659Z,8.71
2022-10-17T20:16:18.984Z,8.66
2022-10-17T20:18:46.218Z,8.58
2022-10-17T20:21:15.810Z,8.64
2022-10-17T20:23:43.618Z,8.64
2022-10-17T20:26:26.016Z,8.64
2022-10-17T20:29:04.958Z,8.62
2022-10-17T20:31:31.967Z,8.54
2022-10-17T20:33:59.964Z,8.58
2022-10-17T20:36:27.140Z,8.55
2022-10-17T20:38:55.924Z,8.55
2022-10-17T20:41:23.765Z,8.56
2022-10-17T20:43:52.197Z,8.54
2022-10-17T20:46:36.258Z,8.52
2022-10-17T20:49:06.283Z,8.56
2022-10-17T20:51:34.046Z,8.55
2022-10-17T20:54:00.919Z,8.51
2022-10-17T20:56:30.585Z,8.53
2022-10-17T20:59:06.090Z,8.55
2022-10-17T21:01:34.946Z,8.56
2022-10-17T21:04:21.264Z,8.55
2022-10-17T21:06:49.041Z,8.55
2022-10-17T21:09:15.972Z,8.53
2022-10-17T21:11:45.768Z,8.51
2022-10-17T21:14:12.877Z,8.49
2022-10-17T21:16:41.388Z,8.50
2022-10-17T21:19:10.218Z,8.49
2022-10-17T21:21:40.169Z,8.46
2022-10-17T21:24:13.070Z,8.49
2022-10-17T21:26:41.856Z,8.48
2022-10-17T21:29:10.365Z,8.44
2022-10-17T21:31:38.992Z,8.43
2022-10-17T21:34:08.638Z,8.40
2022-10-17T21:36:35.619Z,8.36
2022-10-17T21:39:03.041Z,8.31
2022-10-17T21:41:31.367Z,8.34
2022-10-17T21:44:02.017Z,8.30
2022-10-17T21:46:29.641Z,8.30
2022-10-17T21:48:58.547Z,8.32
2022-10-17T21:51:26.414Z,8.35
2022-10-17T21:53:54.927Z,8.36
2022-10-17T21:56:23.768Z,8.38
2022-10-17T21:58:51.875Z,8.40
2022-10-17T22:01:43.482Z,8.39
2022-10-17T22:04:18.087Z,8.41
2022-10-17T22:06:47.139Z,8.40
2022-10-17T22:09:25.522Z,8.42
2022-10-17T22:11:55.379Z,8.40
2022-10-17T22:14:24.554Z,8.40
2022-10-17T22:16:51.931Z,8.39
2022-10-17T22:19:22.216Z,8.34
2022-10-17T22:21:50.057Z,8.27
2022-10-17T22:24:19.312Z,8.31
2022-10-17T22:26:46.690Z,8.25
2022-10-17T22:29:14.231Z,8.24
2022-10-17T22:31:41.406Z,8.24
2022-10-17T22:34:08.808Z,8.23
2022-10-17T22:36:36.458Z,8.25
2022-10-17T22:39:04.321Z,8.30
2022-10-17T22:41:31.376Z,8.28
2022-10-17T22:43:58.318Z,8.31
2022-10-17T22:46:25.884Z,8.33
2022-10-17T22:48:52.773Z,8.41
2022-10-17T22:51:20.105Z,8.41
2022-10-17T22:53:47.048Z,8.45
2022-10-17T22:56:20.117Z,8.47
2022-10-17T22:58:47.722Z,8.49
2022-10-17T23:01:20.463Z,8.54
2022-10-17T23:03:47.545Z,8.59
2022-10-17T23:06:14.956Z,8.59
2022-10-17T23:08:42.763Z,8.63
2022-10-17T23:11:10.025Z,8.63
2022-10-17T23:13:37.298Z,8.58
2022-10-17T23:16:04.565Z,8.63
2022-10-17T23:21:03.979Z,8.66
2022-10-17T23:23:30.838Z,8.66
2022-10-17T23:26:04.894Z,8.64
2022-10-17T23:28:33.696Z,8.56
2022-10-17T23:31:11.197Z,8.59
2022-10-17T23:33:41.259Z,8.57
2022-10-17T23:36:10.711Z,8.51
2022-10-17T23:38:38.632Z,8.47
2022-10-17T23:41:05.950Z,8.46
2022-10-17T23:43:34.324Z,8.42
2022-10-17T23:46:02.374Z,8.40
2022-10-17T23:48:30.054Z,8.41
2022-10-17T23:50:57.335Z,8.37
2022-10-17T23:53:25.037Z,8.34
2022-10-17T23:55:52.417Z,8.23
2022-10-17T23:58:19.298Z,8.22
